sensor_id;sensor_type;location;lat;lon;timestamp;temperature;humidity
11229;DHT22;5671;47.936;8.716;2024-01-30T00:01:09;-1.50;83.00
11229;DHT22;5671;47.936;8.716;2024-01-30T00:03:36;-1.60;83.10
11229;DHT22;5671;47.936;8.716;2024-01-30T00:06:05;-1.60;82.90
11229;DHT22;5671;47.936;8.716;2024-01-30T00:08:31;-1.60;82.60
11229;DHT22;5671;47.936;8.716;2024-01-30T00:10:58;-1.60;82.70
11229;DHT22;5671;47.936;8.716;2024-01-30T00:13:26;-1.60;82.70
11229;DHT22;5671;47.936;8.716;2024-01-30T00:15:53;-1.60;82.50
11229;DHT22;5671;47.936;8.716;2024-01-30T00:18:20;-1.70;82.70
11229;DHT22;5671;47.936;8.716;2024-01-30T00:20:47;-1.70;82.70
11229;DHT22;5671;47.936;8.716;2024-01-30T00:23:15;-1.70;82.60
11229;DHT22;5671;47.936;8.716;2024-01-30T00:25:42;-1.70;82.80
11229;DHT22;5671;47.936;8.716;2024-01-30T00:28:09;-1.70;83.00
11229;DHT22;5671;47.936;8.716;2024-01-30T00:30:35;-1.70;83.00
11229;DHT22;5671;47.936;8.716;2024-01-30T00:33:03;-1.70;82.90
11229;DHT22;5671;47.936;8.716;2024-01-30T00:35:29;-1.70;82.80
11229;DHT22;5671;47.936;8.716;2024-01-30T00:37:56;-1.80;82.80
11229;DHT22;5671;47.936;8.716;2024-01-30T00:40:25;-1.80;82.80
11229;DHT22;5671;47.936;8.716;2024-01-30T00:42:52;-1.80;82.60
11229;DHT22;5671;47.936;8.716;2024-01-30T00:45:18;-1.80;82.80
11229;DHT22;5671;47.936;8.716;2024-01-30T00:47:45;-1.80;83.10
11229;DHT22;5671;47.936;8.716;2024-01-30T00:50:12;-1.80;82.80
11229;DHT22;5671;47.936;8.716;2024-01-30T00:52:39;-1.90;83.30
11229;DHT22;5671;47.936;8.716;2024-01-30T00:55:07;-1.90;83.70
11229;DHT22;5671;47.936;8.716;2024-01-30T00:57:35;-1.90;83.50
11229;DHT22;5671;47.936;8.716;2024-01-30T01:00:02;-1.90;83.20
11229;DHT22;5671;47.936;8.716;2024-01-30T01:02:32;-1.90;82.90
11229;DHT22;5671;47.936;8.716;2024-01-30T01:04:58;-1.90;82.80
11229;DHT22;5671;47.936;8.716;2024-01-30T01:07:25;-1.90;82.60
11229;DHT22;5671;47.936;8.716;2024-01-30T01:09:52;-1.90;82.70
11229;DHT22;5671;47.936;8.716;2024-01-30T01:12:19;-1.90;82.50
11229;DHT22;5671;47.936;8.716;2024-01-30T01:14:47;-2.00;82.80
11229;DHT22;5671;47.936;8.716;2024-01-30T01:17:14;-2.00;83.20
11229;DHT22;5671;47.936;8.716;2024-01-30T01:19:41;-2.00;83.50
11229;DHT22;5671;47.936;8.716;2024-01-30T01:22:08;-2.00;83.60
11229;DHT22;5671;47.936;8.716;2024-01-30T01:24:36;-2.00;83.70
11229;DHT22;5671;47.936;8.716;2024-01-30T01:27:03;-2.00;83.50
11229;DHT22;5671;47.936;8.716;2024-01-30T01:29:30;-2.10;83.50
11229;DHT22;5671;47.936;8.716;2024-01-30T01:31:58;-2.10;83.60
11229;DHT22;5671;47.936;8.716;2024-01-30T01:34:25;-2.10;83.50
11229;DHT22;5671;47.936;8.716;2024-01-30T01:36:52;-2.10;83.20
11229;DHT22;5671;47.936;8.716;2024-01-30T01:39:21;-2.10;83.40
11229;DHT22;5671;47.936;8.716;2024-01-30T01:41:48;-2.10;83.40
11229;DHT22;5671;47.936;8.716;2024-01-30T01:44:17;-2.10;83.60
11229;DHT22;5671;47.936;8.716;2024-01-30T01:46:44;-2.10;83.60
11229;DHT22;5671;47.936;8.716;2024-01-30T01:49:12;-2.10;83.30
11229;DHT22;5671;47.936;8.716;2024-01-30T01:51:41;-2.10;83.20
11229;DHT22;5671;47.936;8.716;2024-01-30T01:54:10;-2.20;82.50
11229;DHT22;5671;47.936;8.716;2024-01-30T01:56:37;-2.20;82.80
11229;DHT22;5671;47.936;8.716;2024-01-30T01:59:06;-2.20;82.70
11229;DHT22;5671;47.936;8.716;2024-01-30T02:01:34;-2.20;82.70
11229;DHT22;5671;47.936;8.716;2024-01-30T02:04:01;-2.20;82.80
11229;DHT22;5671;47.936;8.716;2024-01-30T02:06:29;-2.20;83.40
11229;DHT22;5671;47.936;8.716;2024-01-30T02:08:56;-2.20;83.20
11229;DHT22;5671;47.936;8.716;2024-01-30T02:11:23;-2.30;83.50
11229;DHT22;5671;47.936;8.716;2024-01-30T02:13:50;-2.30;83.20
11229;DHT22;5671;47.936;8.716;2024-01-30T02:16:17;-2.30;83.10
11229;DHT22;5671;47.936;8.716;2024-01-30T02:18:44;-2.30;83.00
11229;DHT22;5671;47.936;8.716;2024-01-30T02:21:15;-2.30;83.30
11229;DHT22;5671;47.936;8.716;2024-01-30T02:23:43;-2.30;84.10
11229;DHT22;5671;47.936;8.716;2024-01-30T02:26:11;-2.30;83.80
11229;DHT22;5671;47.936;8.716;2024-01-30T02:28:38;-2.40;83.40
11229;DHT22;5671;47.936;8.716;2024-01-30T02:31:05;-2.40;83.50
11229;DHT22;5671;47.936;8.716;2024-01-30T02:33:31;-2.40;83.50
11229;DHT22;5671;47.936;8.716;2024-01-30T02:35:58;-2.40;83.80
11229;DHT22;5671;47.936;8.716;2024-01-30T02:38:26;-2.40;83.50
11229;DHT22;5671;47.936;8.716;2024-01-30T02:40:54;-2.40;83.50
11229;DHT22;5671;47.936;8.716;2024-01-30T02:43:22;-2.40;83.60
11229;DHT22;5671;47.936;8.716;2024-01-30T02:45:48;-2.40;83.40
11229;DHT22;5671;47.936;8.716;2024-01-30T02:48:15;-2.50;83.40
11229;DHT22;5671;47.936;8.716;2024-01-30T02:50:42;-2.50;83.60
11229;DHT22;5671;47.936;8.716;2024-01-30T02:53:09;-2.50;83.70
11229;DHT22;5671;47.936;8.716;2024-01-30T02:55:37;-2.50;83.60
11229;DHT22;5671;47.936;8.716;2024-01-30T02:58:04;-2.50;83.60
11229;DHT22;5671;47.936;8.716;2024-01-30T03:00:31;-2.50;83.70
11229;DHT22;5671;47.936;8.716;2024-01-30T03:02:58;-2.50;83.70
11229;DHT22;5671;47.936;8.716;2024-01-30T03:05:25;-2.50;83.60
11229;DHT22;5671;47.936;8.716;2024-01-30T03:07:51;-2.50;83.60
11229;DHT22;5671;47.936;8.716;2024-01-30T03:10:18;-2.50;83.60
11229;DHT22;5671;47.936;8.716;2024-01-30T03:12:46;-2.50;83.20
11229;DHT22;5671;47.936;8.716;2024-01-30T03:15:13;-2.60;83.40
11229;DHT22;5671;47.936;8.716;2024-01-30T03:17:41;-2.60;83.20
11229;DHT22;5671;47.936;8.716;2024-01-30T03:20:08;-2.60;83.20
11229;DHT22;5671;47.936;8.716;2024-01-30T03:22:35;-2.60;83.10
11229;DHT22;5671;47.936;8.716;2024-01-30T03:25:03;-2.60;83.40
11229;DHT22;5671;47.936;8.716;2024-01-30T03:27:30;-2.60;83.20
11229;DHT22;5671;47.936;8.716;2024-01-30T03:29:58;-2.70;83.10
11229;DHT22;5671;47.936;8.716;2024-01-30T03:32:24;-2.70;83.40
11229;DHT22;5671;47.936;8.716;2024-01-30T03:34:51;-2.70;83.50
11229;DHT22;5671;47.936;8.716;2024-01-30T03:37:18;-2.70;83.40
11229;DHT22;5671;47.936;8.716;2024-01-30T03:39:45;-2.80;83.60
11229;DHT22;5671;47.936;8.716;2024-01-30T03:42:12;-2.70;83.70
11229;DHT22;5671;47.936;8.716;2024-01-30T03:44:39;-2.80;83.90
11229;DHT22;5671;47.936;8.716;2024-01-30T03:47:07;-2.80;83.80
11229;DHT22;5671;47.936;8.716;2024-01-30T03:49:34;-2.80;83.80
11229;DHT22;5671;47.936;8.716;2024-01-30T03:52:01;-2.80;83.50
11229;DHT22;5671;47.936;8.716;2024-01-30T03:54:27;-2.80;83.40
11229;DHT22;5671;47.936;8.716;2024-01-30T03:56:54;-2.80;83.20
11229;DHT22;5671;47.936;8.716;2024-01-30T03:59:21;-2.80;83.30
11229;DHT22;5671;47.936;8.716;2024-01-30T04:01:49;-2.80;83.20
11229;DHT22;5671;47.936;8.716;2024-01-30T04:04:18;-2.80;83.80
11229;DHT22;5671;47.936;8.716;2024-01-30T04:06:45;-2.90;83.90
11229;DHT22;5671;47.936;8.716;2024-01-30T04:09:12;-2.90;84.20
11229;DHT22;5671;47.936;8.716;2024-01-30T04:11:40;-3.00;84.20
11229;DHT22;5671;47.936;8.716;2024-01-30T04:14:08;-3.00;84.10
11229;DHT22;5671;47.936;8.716;2024-01-30T04:16:35;-3.00;84.20
11229;DHT22;5671;47.936;8.716;2024-01-30T04:19:02;-3.10;84.60
11229;DHT22;5671;47.936;8.716;2024-01-30T04:21:30;-3.10;84.90
11229;DHT22;5671;47.936;8.716;2024-01-30T04:23:57;-3.10;84.80
11229;DHT22;5671;47.936;8.716;2024-01-30T04:26:23;-3.00;84.80
11229;DHT22;5671;47.936;8.716;2024-01-30T04:28:50;-3.10;84.80
11229;DHT22;5671;47.936;8.716;2024-01-30T04:31:17;-3.10;84.80
11229;DHT22;5671;47.936;8.716;2024-01-30T04:33:44;-3.10;85.30
11229;DHT22;5671;47.936;8.716;2024-01-30T04:36:11;-3.10;85.20
11229;DHT22;5671;47.936;8.716;2024-01-30T04:38:39;-3.10;85.10
11229;DHT22;5671;47.936;8.716;2024-01-30T04:41:06;-3.10;84.70
11229;DHT22;5671;47.936;8.716;2024-01-30T04:43:33;-3.10;85.10
11229;DHT22;5671;47.936;8.716;2024-01-30T04:45:59;-3.10;84.80
11229;DHT22;5671;47.936;8.716;2024-01-30T04:48:26;-3.10;84.80
11229;DHT22;5671;47.936;8.716;2024-01-30T04:50:53;-3.10;85.20
11229;DHT22;5671;47.936;8.716;2024-01-30T04:53:21;-3.10;85.30
11229;DHT22;5671;47.936;8.716;2024-01-30T04:55:49;-3.10;85.60
11229;DHT22;5671;47.936;8.716;2024-01-30T04:58:16;-3.10;85.50
11229;DHT22;5671;47.936;8.716;2024-01-30T05:00:43;-3.10;85.60
11229;DHT22;5671;47.936;8.716;2024-01-30T05:03:11;-3.10;85.50
11229;DHT22;5671;47.936;8.716;2024-01-30T05:05:38;-3.20;85.30
11229;DHT22;5671;47.936;8.716;2024-01-30T05:08:06;-3.20;85.30
11229;DHT22;5671;47.936;8.716;2024-01-30T05:10:33;-3.20;85.00
11229;DHT22;5671;47.936;8.716;2024-01-30T05:13:01;-3.20;85.00
11229;DHT22;5671;47.936;8.716;2024-01-30T05:15:28;-3.20;85.00
11229;DHT22;5671;47.936;8.716;2024-01-30T05:17:55;-3.30;85.40
11229;DHT22;5671;47.936;8.716;2024-01-30T05:20:21;-3.30;85.70
11229;DHT22;5671;47.936;8.716;2024-01-30T05:22:48;-3.30;86.00
11229;DHT22;5671;47.936;8.716;2024-01-30T05:25:15;-3.30;86.20
11229;DHT22;5671;47.936;8.716;2024-01-30T05:27:42;-3.30;85.90
11229;DHT22;5671;47.936;8.716;2024-01-30T05:30:11;-3.30;85.50
11229;DHT22;5671;47.936;8.716;2024-01-30T05:32:38;-3.20;85.50
11229;DHT22;5671;47.936;8.716;2024-01-30T05:35:05;-3.20;85.30
11229;DHT22;5671;47.936;8.716;2024-01-30T05:37:33;-3.20;85.10
11229;DHT22;5671;47.936;8.716;2024-01-30T05:40:00;-3.30;84.90
11229;DHT22;5671;47.936;8.716;2024-01-30T05:42:27;-3.30;85.10
11229;DHT22;5671;47.936;8.716;2024-01-30T05:44:54;-3.30;85.00
11229;DHT22;5671;47.936;8.716;2024-01-30T05:47:22;-3.30;85.00
11229;DHT22;5671;47.936;8.716;2024-01-30T05:49:49;-3.30;85.10
11229;DHT22;5671;47.936;8.716;2024-01-30T05:52:15;-3.30;84.80
11229;DHT22;5671;47.936;8.716;2024-01-30T05:54:44;-3.30;84.90
11229;DHT22;5671;47.936;8.716;2024-01-30T05:57:11;-3.30;84.80
11229;DHT22;5671;47.936;8.716;2024-01-30T05:59:38;-3.30;84.50
11229;DHT22;5671;47.936;8.716;2024-01-30T06:02:04;-3.30;84.70
11229;DHT22;5671;47.936;8.716;2024-01-30T06:04:32;-3.40;84.70
11229;DHT22;5671;47.936;8.716;2024-01-30T06:06:59;-3.30;84.60
11229;DHT22;5671;47.936;8.716;2024-01-30T06:09:27;-3.30;84.50
11229;DHT22;5671;47.936;8.716;2024-01-30T06:11:54;-3.30;84.80
11229;DHT22;5671;47.936;8.716;2024-01-30T06:14:21;-3.30;85.00
11229;DHT22;5671;47.936;8.716;2024-01-30T06:16:48;-3.30;84.80
11229;DHT22;5671;47.936;8.716;2024-01-30T06:19:15;-3.30;84.80
11229;DHT22;5671;47.936;8.716;2024-01-30T06:21:43;-3.30;85.00
11229;DHT22;5671;47.936;8.716;2024-01-30T06:24:10;-3.40;85.00
11229;DHT22;5671;47.936;8.716;2024-01-30T06:26:37;-3.40;85.20
11229;DHT22;5671;47.936;8.716;2024-01-30T06:29:04;-3.40;85.30
11229;DHT22;5671;47.936;8.716;2024-01-30T06:31:31;-3.40;85.60
11229;DHT22;5671;47.936;8.716;2024-01-30T06:33:58;-3.30;85.90
11229;DHT22;5671;47.936;8.716;2024-01-30T06:36:24;-3.40;86.00
11229;DHT22;5671;47.936;8.716;2024-01-30T06:38:53;-3.30;85.70
11229;DHT22;5671;47.936;8.716;2024-01-30T06:41:20;-3.30;85.60
11229;DHT22;5671;47.936;8.716;2024-01-30T06:43:47;-3.30;85.20
11229;DHT22;5671;47.936;8.716;2024-01-30T06:46:13;-3.30;84.90
11229;DHT22;5671;47.936;8.716;2024-01-30T06:48:40;-3.30;84.90
11229;DHT22;5671;47.936;8.716;2024-01-30T06:51:10;-3.40;85.00
11229;DHT22;5671;47.936;8.716;2024-01-30T06:53:37;-3.40;85.30
11229;DHT22;5671;47.936;8.716;2024-01-30T06:56:06;-3.40;85.40
11229;DHT22;5671;47.936;8.716;2024-01-30T06:58:33;-3.40;85.60
11229;DHT22;5671;47.936;8.716;2024-01-30T07:01:00;-3.40;85.70
11229;DHT22;5671;47.936;8.716;2024-01-30T07:03:27;-3.40;85.70
11229;DHT22;5671;47.936;8.716;2024-01-30T07:05:54;-3.40;85.60
11229;DHT22;5671;47.936;8.716;2024-01-30T07:08:39;-3.40;85.40
11229;DHT22;5671;47.936;8.716;2024-01-30T07:11:07;-3.30;85.80
11229;DHT22;5671;47.936;8.716;2024-01-30T07:13:34;-3.40;85.60
11229;DHT22;5671;47.936;8.716;2024-01-30T07:16:01;-3.30;85.80
11229;DHT22;5671;47.936;8.716;2024-01-30T07:18:28;-3.30;86.20
11229;DHT22;5671;47.936;8.716;2024-01-30T07:20:55;-3.30;85.80
11229;DHT22;5671;47.936;8.716;2024-01-30T07:23:22;-3.30;85.70
11229;DHT22;5671;47.936;8.716;2024-01-30T07:25:49;-3.30;85.70
11229;DHT22;5671;47.936;8.716;2024-01-30T07:28:17;-3.30;86.00
11229;DHT22;5671;47.936;8.716;2024-01-30T07:30:45;-3.30;85.60
11229;DHT22;5671;47.936;8.716;2024-01-30T07:33:13;-3.30;85.40
11229;DHT22;5671;47.936;8.716;2024-01-30T07:35:40;-3.20;85.80
11229;DHT22;5671;47.936;8.716;2024-01-30T07:38:06;-3.20;85.70
11229;DHT22;5671;47.936;8.716;2024-01-30T07:40:33;-3.20;85.50
11229;DHT22;5671;47.936;8.716;2024-01-30T07:43:00;-3.20;85.70
11229;DHT22;5671;47.936;8.716;2024-01-30T07:45:30;-3.20;85.90
11229;DHT22;5671;47.936;8.716;2024-01-30T07:47:58;-3.20;86.60
11229;DHT22;5671;47.936;8.716;2024-01-30T07:50:26;-3.20;86.80
11229;DHT22;5671;47.936;8.716;2024-01-30T07:52:53;-3.10;86.80
11229;DHT22;5671;47.936;8.716;2024-01-30T07:55:20;-3.10;87.20
11229;DHT22;5671;47.936;8.716;2024-01-30T07:57:50;-3.10;87.00
11229;DHT22;5671;47.936;8.716;2024-01-30T08:00:17;-3.10;86.60
11229;DHT22;5671;47.936;8.716;2024-01-30T08:02:46;-3.10;86.30
11229;DHT22;5671;47.936;8.716;2024-01-30T08:05:13;-3.00;86.20
11229;DHT22;5671;47.936;8.716;2024-01-30T08:07:40;-3.00;86.30
11229;DHT22;5671;47.936;8.716;2024-01-30T08:10:08;-3.00;86.00
11229;DHT22;5671;47.936;8.716;2024-01-30T08:12:35;-3.00;85.80
11229;DHT22;5671;47.936;8.716;2024-01-30T08:15:02;-3.00;85.90
11229;DHT22;5671;47.936;8.716;2024-01-30T08:17:29;-2.90;86.30
11229;DHT22;5671;47.936;8.716;2024-01-30T08:19:58;-2.90;86.30
11229;DHT22;5671;47.936;8.716;2024-01-30T08:22:24;-2.90;86.40
11229;DHT22;5671;47.936;8.716;2024-01-30T08:24:51;-2.90;86.40
11229;DHT22;5671;47.936;8.716;2024-01-30T08:27:18;-2.80;86.10
11229;DHT22;5671;47.936;8.716;2024-01-30T08:29:45;-2.80;86.40
11229;DHT22;5671;47.936;8.716;2024-01-30T08:32:12;-2.70;86.60
11229;DHT22;5671;47.936;8.716;2024-01-30T08:34:39;-2.70;86.50
11229;DHT22;5671;47.936;8.716;2024-01-30T08:37:07;-2.60;86.70
11229;DHT22;5671;47.936;8.716;2024-01-30T08:39:34;-2.50;88.00
11229;DHT22;5671;47.936;8.716;2024-01-30T08:42:00;-2.50;88.50
11229;DHT22;5671;47.936;8.716;2024-01-30T08:44:27;-2.50;88.40
11229;DHT22;5671;47.936;8.716;2024-01-30T08:46:54;-2.40;88.40
11229;DHT22;5671;47.936;8.716;2024-01-30T08:49:21;-2.40;88.50
11229;DHT22;5671;47.936;8.716;2024-01-30T08:51:48;-2.30;88.00
11229;DHT22;5671;47.936;8.716;2024-01-30T08:54:17;-2.20;87.80
11229;DHT22;5671;47.936;8.716;2024-01-30T08:56:44;-2.20;87.90
11229;DHT22;5671;47.936;8.716;2024-01-30T08:59:11;-2.10;88.30
11229;DHT22;5671;47.936;8.716;2024-01-30T09:01:37;-2.10;88.50
11229;DHT22;5671;47.936;8.716;2024-01-30T09:04:04;-2.00;89.00
11229;DHT22;5671;47.936;8.716;2024-01-30T09:06:31;-1.90;89.50
11229;DHT22;5671;47.936;8.716;2024-01-30T09:08:58;-1.80;89.80
11229;DHT22;5671;47.936;8.716;2024-01-30T09:11:26;-1.80;89.70
11229;DHT22;5671;47.936;8.716;2024-01-30T09:13:53;-1.70;90.00
11229;DHT22;5671;47.936;8.716;2024-01-30T09:16:20;-1.60;90.20
11229;DHT22;5671;47.936;8.716;2024-01-30T09:18:46;-1.50;90.40
11229;DHT22;5671;47.936;8.716;2024-01-30T09:21:13;-1.40;90.70
11229;DHT22;5671;47.936;8.716;2024-01-30T09:23:40;-1.40;90.70
11229;DHT22;5671;47.936;8.716;2024-01-30T09:26:07;-1.20;90.90
11229;DHT22;5671;47.936;8.716;2024-01-30T09:28:36;-1.20;90.90
11229;DHT22;5671;47.936;8.716;2024-01-30T09:31:03;-1.10;90.70
11229;DHT22;5671;47.936;8.716;2024-01-30T09:33:30;-1.00;90.90
11229;DHT22;5671;47.936;8.716;2024-01-30T09:35:56;-0.90;91.10
11229;DHT22;5671;47.936;8.716;2024-01-30T09:38:23;-0.80;91.30
11229;DHT22;5671;47.936;8.716;2024-01-30T09:40:55;-0.60;91.40
11229;DHT22;5671;47.936;8.716;2024-01-30T09:43:23;-0.50;91.70
11229;DHT22;5671;47.936;8.716;2024-01-30T09:45:52;-0.40;91.50
11229;DHT22;5671;47.936;8.716;2024-01-30T09:48:20;-0.30;91.40
11229;DHT22;5671;47.936;8.716;2024-01-30T09:50:47;-0.20;90.90
11229;DHT22;5671;47.936;8.716;2024-01-30T09:53:14;-0.10;91.00
11229;DHT22;5671;47.936;8.716;2024-01-30T09:55:43;0.00;90.90
11229;DHT22;5671;47.936;8.716;2024-01-30T09:58:10;0.10;91.00
11229;DHT22;5671;47.936;8.716;2024-01-30T10:00:36;0.20;91.20
11229;DHT22;5671;47.936;8.716;2024-01-30T10:03:05;0.30;90.90
11229;DHT22;5671;47.936;8.716;2024-01-30T10:05:32;0.40;90.80
11229;DHT22;5671;47.936;8.716;2024-01-30T10:08:00;0.50;91.00
11229;DHT22;5671;47.936;8.716;2024-01-30T10:10:28;0.50;90.80
11229;DHT22;5671;47.936;8.716;2024-01-30T10:12:55;0.60;90.70
11229;DHT22;5671;47.936;8.716;2024-01-30T10:15:21;0.80;90.60
11229;DHT22;5671;47.936;8.716;2024-01-30T10:17:49;0.80;90.30
11229;DHT22;5671;47.936;8.716;2024-01-30T10:20:17;0.90;89.90
11229;DHT22;5671;47.936;8.716;2024-01-30T10:22:45;0.90;89.90
11229;DHT22;5671;47.936;8.716;2024-01-30T10:25:13;1.00;89.60
11229;DHT22;5671;47.936;8.716;2024-01-30T10:27:40;1.10;89.90
11229;DHT22;5671;47.936;8.716;2024-01-30T10:30:08;1.20;89.90
11229;DHT22;5671;47.936;8.716;2024-01-30T10:32:35;1.30;89.60
11229;DHT22;5671;47.936;8.716;2024-01-30T10:35:02;1.40;89.30
11229;DHT22;5671;47.936;8.716;2024-01-30T10:37:31;1.50;89.60
11229;DHT22;5671;47.936;8.716;2024-01-30T10:40:02;1.60;89.40
11229;DHT22;5671;47.936;8.716;2024-01-30T10:42:32;1.70;89.50
11229;DHT22;5671;47.936;8.716;2024-01-30T10:45:03;1.80;89.60
11229;DHT22;5671;47.936;8.716;2024-01-30T10:47:35;2.00;89.30
11229;DHT22;5671;47.936;8.716;2024-01-30T10:50:03;2.10;89.50
11229;DHT22;5671;47.936;8.716;2024-01-30T10:52:32;2.30;88.30
11229;DHT22;5671;47.936;8.716;2024-01-30T10:54:59;2.40;88.40
11229;DHT22;5671;47.936;8.716;2024-01-30T10:57:27;2.50;88.60
11229;DHT22;5671;47.936;8.716;2024-01-30T10:59:56;2.60;88.90
11229;DHT22;5671;47.936;8.716;2024-01-30T11:02:24;2.60;88.70
11229;DHT22;5671;47.936;8.716;2024-01-30T11:04:55;2.70;88.70
11229;DHT22;5671;47.936;8.716;2024-01-30T11:07:24;2.80;88.70
11229;DHT22;5671;47.936;8.716;2024-01-30T11:09:53;2.90;89.00
11229;DHT22;5671;47.936;8.716;2024-01-30T11:12:23;3.00;89.00
11229;DHT22;5671;47.936;8.716;2024-01-30T11:15:02;3.20;88.80
11229;DHT22;5671;47.936;8.716;2024-01-30T11:17:43;3.30;88.10
11229;DHT22;5671;47.936;8.716;2024-01-30T11:20:11;3.50;88.00
11229;DHT22;5671;47.936;8.716;2024-01-30T11:22:41;3.80;87.20
11229;DHT22;5671;47.936;8.716;2024-01-30T11:25:13;3.90;85.40
11229;DHT22;5671;47.936;8.716;2024-01-30T11:27:41;4.10;84.00
11229;DHT22;5671;47.936;8.716;2024-01-30T11:30:08;4.20;83.10
11229;DHT22;5671;47.936;8.716;2024-01-30T11:32:34;4.40;82.40
11229;DHT22;5671;47.936;8.716;2024-01-30T11:35:03;4.50;82.20
11229;DHT22;5671;47.936;8.716;2024-01-30T11:37:31;4.60;81.60
11229;DHT22;5671;47.936;8.716;2024-01-30T11:39:58;4.70;80.90
11229;DHT22;5671;47.936;8.716;2024-01-30T11:42:27;4.80;80.30
11229;DHT22;5671;47.936;8.716;2024-01-30T11:44:55;4.90;79.90
11229;DHT22;5671;47.936;8.716;2024-01-30T11:47:22;5.00;79.50
11229;DHT22;5671;47.936;8.716;2024-01-30T11:49:49;5.10;78.90
11229;DHT22;5671;47.936;8.716;2024-01-30T11:52:16;5.20;79.10
11229;DHT22;5671;47.936;8.716;2024-01-30T11:54:43;5.20;78.90
11229;DHT22;5671;47.936;8.716;2024-01-30T11:57:10;5.40;78.50
11229;DHT22;5671;47.936;8.716;2024-01-30T11:59:38;5.40;78.30
11229;DHT22;5671;47.936;8.716;2024-01-30T12:02:05;5.40;78.70
11229;DHT22;5671;47.936;8.716;2024-01-30T12:04:32;5.50;78.40
11229;DHT22;5671;47.936;8.716;2024-01-30T12:06:59;5.60;77.70
11229;DHT22;5671;47.936;8.716;2024-01-30T12:09:26;5.60;77.90
11229;DHT22;5671;47.936;8.716;2024-01-30T12:11:53;5.70;77.80
11229;DHT22;5671;47.936;8.716;2024-01-30T12:14:20;5.70;77.40
11229;DHT22;5671;47.936;8.716;2024-01-30T12:16:52;5.80;77.40
11229;DHT22;5671;47.936;8.716;2024-01-30T12:19:22;5.90;77.30
11229;DHT22;5671;47.936;8.716;2024-01-30T12:21:54;5.90;77.10
11229;DHT22;5671;47.936;8.716;2024-01-30T12:24:21;6.00;77.30
11229;DHT22;5671;47.936;8.716;2024-01-30T12:26:49;6.00;76.70
11229;DHT22;5671;47.936;8.716;2024-01-30T12:29:15;6.00;76.90
11229;DHT22;5671;47.936;8.716;2024-01-30T12:31:42;6.10;77.10
11229;DHT22;5671;47.936;8.716;2024-01-30T12:34:14;6.20;76.00
11229;DHT22;5671;47.936;8.716;2024-01-30T12:36:41;6.20;77.10
11229;DHT22;5671;47.936;8.716;2024-01-30T12:39:11;6.20;76.90
11229;DHT22;5671;47.936;8.716;2024-01-30T12:41:38;6.30;77.40
11229;DHT22;5671;47.936;8.716;2024-01-30T12:44:05;6.30;77.30
11229;DHT22;5671;47.936;8.716;2024-01-30T12:46:34;6.40;77.50
11229;DHT22;5671;47.936;8.716;2024-01-30T12:49:01;6.50;78.20
11229;DHT22;5671;47.936;8.716;2024-01-30T12:51:29;6.60;76.80
11229;DHT22;5671;47.936;8.716;2024-01-30T12:53:56;6.60;75.20
11229;DHT22;5671;47.936;8.716;2024-01-30T12:56:23;6.70;71.20
11229;DHT22;5671;47.936;8.716;2024-01-30T12:58:49;6.80;70.00
11229;DHT22;5671;47.936;8.716;2024-01-30T13:01:16;6.80;69.00
11229;DHT22;5671;47.936;8.716;2024-01-30T13:03:43;6.90;71.00
11229;DHT22;5671;47.936;8.716;2024-01-30T13:06:10;6.90;69.20
11229;DHT22;5671;47.936;8.716;2024-01-30T13:08:38;7.00;67.90
11229;DHT22;5671;47.936;8.716;2024-01-30T13:11:05;7.10;67.60
11229;DHT22;5671;47.936;8.716;2024-01-30T13:13:32;7.20;66.80
11229;DHT22;5671;47.936;8.716;2024-01-30T13:15:59;7.20;66.50
11229;DHT22;5671;47.936;8.716;2024-01-30T13:18:26;7.30;64.20
11229;DHT22;5671;47.936;8.716;2024-01-30T13:20:53;7.30;64.60
11229;DHT22;5671;47.936;8.716;2024-01-30T13:23:19;7.30;64.40
11229;DHT22;5671;47.936;8.716;2024-01-30T13:25:48;7.30;64.30
11229;DHT22;5671;47.936;8.716;2024-01-30T13:28:15;7.40;63.10
11229;DHT22;5671;47.936;8.716;2024-01-30T13:30:41;7.40;64.00
11229;DHT22;5671;47.936;8.716;2024-01-30T13:33:08;7.40;64.10
11229;DHT22;5671;47.936;8.716;2024-01-30T13:35:35;7.40;63.00
11229;DHT22;5671;47.936;8.716;2024-01-30T13:38:02;7.40;63.20
11229;DHT22;5671;47.936;8.716;2024-01-30T13:40:29;7.40;63.60
11229;DHT22;5671;47.936;8.716;2024-01-30T13:42:57;7.50;63.70
11229;DHT22;5671;47.936;8.716;2024-01-30T13:45:24;7.50;63.30
11229;DHT22;5671;47.936;8.716;2024-01-30T13:47:50;7.60;63.30
11229;DHT22;5671;47.936;8.716;2024-01-30T13:50:17;7.60;63.20
11229;DHT22;5671;47.936;8.716;2024-01-30T13:52:44;7.70;62.80
11229;DHT22;5671;47.936;8.716;2024-01-30T13:55:11;7.70;63.00
11229;DHT22;5671;47.936;8.716;2024-01-30T13:57:38;7.70;61.90
11229;DHT22;5671;47.936;8.716;2024-01-30T14:00:08;7.70;62.40
11229;DHT22;5671;47.936;8.716;2024-01-30T14:02:35;7.60;62.60
11229;DHT22;5671;47.936;8.716;2024-01-30T14:05:02;7.70;62.10
11229;DHT22;5671;47.936;8.716;2024-01-30T14:07:30;7.70;62.90
11229;DHT22;5671;47.936;8.716;2024-01-30T14:09:56;7.70;62.00
11229;DHT22;5671;47.936;8.716;2024-01-30T14:12:23;7.70;63.00
11229;DHT22;5671;47.936;8.716;2024-01-30T14:14:50;7.70;63.70
11229;DHT22;5671;47.936;8.716;2024-01-30T14:17:18;7.70;63.80
11229;DHT22;5671;47.936;8.716;2024-01-30T14:19:45;7.70;63.70
11229;DHT22;5671;47.936;8.716;2024-01-30T14:22:15;7.70;63.60
11229;DHT22;5671;47.936;8.716;2024-01-30T14:24:42;7.60;64.00
11229;DHT22;5671;47.936;8.716;2024-01-30T14:27:10;7.60;63.60
11229;DHT22;5671;47.936;8.716;2024-01-30T14:29:36;7.70;65.10
11229;DHT22;5671;47.936;8.716;2024-01-30T14:32:04;7.60;63.20
11229;DHT22;5671;47.936;8.716;2024-01-30T14:34:32;7.60;63.30
11229;DHT22;5671;47.936;8.716;2024-01-30T14:36:59;7.60;64.20
11229;DHT22;5671;47.936;8.716;2024-01-30T14:39:26;7.60;64.70
11229;DHT22;5671;47.936;8.716;2024-01-30T14:41:52;7.60;65.10
11229;DHT22;5671;47.936;8.716;2024-01-30T14:44:19;7.60;65.20
11229;DHT22;5671;47.936;8.716;2024-01-30T14:46:46;7.50;65.60
11229;DHT22;5671;47.936;8.716;2024-01-30T14:49:13;7.50;65.60
11229;DHT22;5671;47.936;8.716;2024-01-30T14:51:42;7.50;65.90
11229;DHT22;5671;47.936;8.716;2024-01-30T14:54:09;7.40;66.40
11229;DHT22;5671;47.936;8.716;2024-01-30T14:56:36;7.40;66.60
11229;DHT22;5671;47.936;8.716;2024-01-30T14:59:03;7.40;65.90
11229;DHT22;5671;47.936;8.716;2024-01-30T15:01:30;7.30;65.50
11229;DHT22;5671;47.936;8.716;2024-01-30T15:03:57;7.30;66.00
11229;DHT22;5671;47.936;8.716;2024-01-30T15:06:24;7.30;64.90
11229;DHT22;5671;47.936;8.716;2024-01-30T15:08:52;7.30;66.40
11229;DHT22;5671;47.936;8.716;2024-01-30T15:11:19;7.20;66.50
11229;DHT22;5671;47.936;8.716;2024-01-30T15:13:46;7.20;67.30
11229;DHT22;5671;47.936;8.716;2024-01-30T15:16:13;7.10;67.20
11229;DHT22;5671;47.936;8.716;2024-01-30T15:18:40;7.10;68.10
11229;DHT22;5671;47.936;8.716;2024-01-30T15:21:07;7.10;67.60
11229;DHT22;5671;47.936;8.716;2024-01-30T15:23:34;7.00;68.50
11229;DHT22;5671;47.936;8.716;2024-01-30T15:26:03;7.00;69.80
11229;DHT22;5671;47.936;8.716;2024-01-30T15:28:36;6.90;70.00
11229;DHT22;5671;47.936;8.716;2024-01-30T15:31:03;6.80;68.80
11229;DHT22;5671;47.936;8.716;2024-01-30T15:33:31;6.80;69.70
11229;DHT22;5671;47.936;8.716;2024-01-30T15:35:58;6.70;70.30
11229;DHT22;5671;47.936;8.716;2024-01-30T15:38:25;6.70;70.60
11229;DHT22;5671;47.936;8.716;2024-01-30T15:40:53;6.60;70.50
11229;DHT22;5671;47.936;8.716;2024-01-30T15:43:21;6.60;71.10
11229;DHT22;5671;47.936;8.716;2024-01-30T15:45:48;6.50;71.10
11229;DHT22;5671;47.936;8.716;2024-01-30T15:48:16;6.40;71.40
11229;DHT22;5671;47.936;8.716;2024-01-30T15:50:42;6.30;71.80
11229;DHT22;5671;47.936;8.716;2024-01-30T15:53:09;6.30;72.30